sensor_id;sensor_type;location;lat;lon;timestamp;P1;durP1;ratioP1;P2;durP2;ratioP2
25341;SDS011;13298;48.792;9.154;2024-01-27T00:02:20;3.17;;;1.10;;
25341;SDS011;13298;48.792;9.154;2024-01-27T00:04:45;3.05;;;0.98;;
25341;SDS011;13298;48.792;9.154;2024-01-27T00:07:11;5.07;;;1.33;;
25341;SDS011;13298;48.792;9.154;2024-01-27T00:09:37;2.83;;;1.20;;
25341;SDS011;13298;48.792;9.154;2024-01-27T00:12:03;4.65;;;1.48;;
25341;SDS011;13298;48.792;9.154;2024-01-27T00:14:28;3.63;;;1.27;;
25341;SDS011;13298;48.792;9.154;2024-01-27T00:16:54;6.30;;;1.40;;
25341;SDS011;13298;48.792;9.154;2024-01-27T00:19:20;3.55;;;1.17;;
25341;SDS011;13298;48.792;9.154;2024-01-27T00:21:45;5.55;;;1.55;;
25341;SDS011;13298;48.792;9.154;2024-01-27T00:24:13;4.32;;;1.52;;
25341;SDS011;13298;48.792;9.154;2024-01-27T00:26:39;3.67;;;1.45;;
25341;SDS011;13298;48.792;9.154;2024-01-27T00:29:04;3.75;;;1.27;;
25341;SDS011;13298;48.792;9.154;2024-01-27T00:31:30;5.85;;;1.33;;
25341;SDS011;13298;48.792;9.154;2024-01-27T00:33:56;2.95;;;1.20;;
25341;SDS011;13298;48.792;9.154;2024-01-27T00:36:21;3.15;;;1.48;;
25341;SDS011;13298;48.792;9.154;2024-01-27T00:38:47;3.45;;;1.45;;
25341;SDS011;13298;48.792;9.154;2024-01-27T00:41:16;5.88;;;1.58;;
25341;SDS011;13298;48.792;9.154;2024-01-27T00:43:43;2.15;;;1.10;;
25341;SDS011;13298;48.792;9.154;2024-01-27T00:46:08;3.80;;;1.23;;
25341;SDS011;13298;48.792;9.154;2024-01-27T00:48:34;3.45;;;1.50;;
25341;SDS011;13298;48.792;9.154;2024-01-27T00:50:59;2.67;;;1.30;;
25341;SDS011;13298;48.792;9.154;2024-01-27T00:53:25;2.65;;;1.13;;
25341;SDS011;13298;48.792;9.154;2024-01-27T00:55:51;3.05;;;1.20;;
25341;SDS011;13298;48.792;9.154;2024-01-27T00:58:16;3.20;;;1.10;;
25341;SDS011;13298;48.792;9.154;2024-01-27T01:00:42;7.35;;;1.75;;
25341;SDS011;13298;48.792;9.154;2024-01-27T01:03:08;3.35;;;1.20;;
25341;SDS011;13298;48.792;9.154;2024-01-27T01:05:33;5.30;;;1.33;;
25341;SDS011;13298;48.792;9.154;2024-01-27T01:07:59;6.82;;;1.38;;
25341;SDS011;13298;48.792;9.154;2024-01-27T01:10:25;6.60;;;1.60;;
25341;SDS011;13298;48.792;9.154;2024-01-27T01:12:51;4.32;;;1.30;;
25341;SDS011;13298;48.792;9.154;2024-01-27T01:15:17;3.63;;;1.40;;
25341;SDS011;13298;48.792;9.154;2024-01-27T01:17:43;3.72;;;1.45;;
25341;SDS011;13298;48.792;9.154;2024-01-27T01:20:09;4.90;;;1.30;;
25341;SDS011;13298;48.792;9.154;2024-01-27T01:22:35;6.57;;;1.60;;
25341;SDS011;13298;48.792;9.154;2024-01-27T01:25:00;3.10;;;1.17;;
25341;SDS011;13298;48.792;9.154;2024-01-27T01:27:26;3.58;;;1.10;;
25341;SDS011;13298;48.792;9.154;2024-01-27T01:29:52;2.70;;;1.20;;
25341;SDS011;13298;48.792;9.154;2024-01-27T01:32:17;2.58;;;1.23;;
25341;SDS011;13298;48.792;9.154;2024-01-27T01:34:45;5.28;;;1.35;;
25341;SDS011;13298;48.792;9.154;2024-01-27T01:37:12;2.47;;;1.00;;
25341;SDS011;13298;48.792;9.154;2024-01-27T01:39:38;1.85;;;1.05;;
25341;SDS011;13298;48.792;9.154;2024-01-27T01:42:04;7.10;;;1.65;;
25341;SDS011;13298;48.792;9.154;2024-01-27T01:44:30;4.03;;;1.25;;
25341;SDS011;13298;48.792;9.154;2024-01-27T01:46:59;4.95;;;1.30;;
25341;SDS011;13298;48.792;9.154;2024-01-27T01:49:25;3.65;;;1.35;;
25341;SDS011;13298;48.792;9.154;2024-01-27T01:51:51;5.78;;;1.83;;
25341;SDS011;13298;48.792;9.154;2024-01-27T01:54:17;3.95;;;1.40;;
25341;SDS011;13298;48.792;9.154;2024-01-27T01:56:43;3.80;;;1.50;;
25341;SDS011;13298;48.792;9.154;2024-01-27T01:59:10;2.45;;;1.50;;
25341;SDS011;13298;48.792;9.154;2024-01-27T02:01:35;5.30;;;1.40;;
25341;SDS011;13298;48.792;9.154;2024-01-27T02:04:01;7.03;;;1.40;;
25341;SDS011;13298;48.792;9.154;2024-01-27T02:06:30;3.30;;;1.52;;
25341;SDS011;13298;48.792;9.154;2024-01-27T02:08:55;4.68;;;1.35;;
25341;SDS011;13298;48.792;9.154;2024-01-27T02:11:21;5.35;;;1.98;;
25341;SDS011;13298;48.792;9.154;2024-01-27T02:13:47;6.97;;;1.55;;
25341;SDS011;13298;48.792;9.154;2024-01-27T02:16:13;5.70;;;1.63;;
25341;SDS011;13298;48.792;9.154;2024-01-27T02:18:38;7.30;;;1.50;;
25341;SDS011;13298;48.792;9.154;2024-01-27T02:21:04;3.28;;;1.25;;
25341;SDS011;13298;48.792;9.154;2024-01-27T02:23:30;3.53;;;1.42;;
25341;SDS011;13298;48.792;9.154;2024-01-27T02:25:56;5.90;;;1.50;;
25341;SDS011;13298;48.792;9.154;2024-01-27T02:28:22;6.45;;;1.70;;
25341;SDS011;13298;48.792;9.154;2024-01-27T02:30:50;5.43;;;1.50;;
25341;SDS011;13298;48.792;9.154;2024-01-27T02:33:15;3.22;;;1.30;;
25341;SDS011;13298;48.792;9.154;2024-01-27T02:35:41;6.00;;;1.88;;
25341;SDS011;13298;48.792;9.154;2024-01-27T02:38:08;4.13;;;1.42;;
25341;SDS011;13298;48.792;9.154;2024-01-27T02:40:34;4.03;;;1.15;;
25341;SDS011;13298;48.792;9.154;2024-01-27T02:43:00;3.72;;;1.27;;
25341;SDS011;13298;48.792;9.154;2024-01-27T02:45:25;6.35;;;1.42;;
25341;SDS011;13298;48.792;9.154;2024-01-27T02:47:51;3.53;;;1.63;;
25341;SDS011;13298;48.792;9.154;2024-01-27T02:50:17;3.60;;;1.58;;
25341;SDS011;13298;48.792;9.154;2024-01-27T02:52:43;7.22;;;1.63;;
25341;SDS011;13298;48.792;9.154;2024-01-27T02:55:09;4.38;;;1.80;;
25341;SDS011;13298;48.792;9.154;2024-01-27T02:57:35;2.63;;;1.63;;
25341;SDS011;13298;48.792;9.154;2024-01-27T03:00:00;3.15;;;1.45;;
25341;SDS011;13298;48.792;9.154;2024-01-27T03:02:26;2.63;;;1.52;;
25341;SDS011;13298;48.792;9.154;2024-01-27T03:04:52;4.22;;;1.48;;
25341;SDS011;13298;48.792;9.154;2024-01-27T03:07:17;8.40;;;1.88;;
25341;SDS011;13298;48.792;9.154;2024-01-27T03:09:43;2.33;;;1.55;;
25341;SDS011;13298;48.792;9.154;2024-01-27T03:12:09;9.07;;;1.70;;
25341;SDS011;13298;48.792;9.154;2024-01-27T03:14:34;5.03;;;1.70;;
25341;SDS011;13298;48.792;9.154;2024-01-27T03:17:00;3.83;;;1.45;;
25341;SDS011;13298;48.792;9.154;2024-01-27T03:19:26;3.70;;;1.30;;
25341;SDS011;13298;48.792;9.154;2024-01-27T03:21:52;3.13;;;1.30;;
25341;SDS011;13298;48.792;9.154;2024-01-27T03:24:17;6.25;;;1.55;;
25341;SDS011;13298;48.792;9.154;2024-01-27T03:26:43;10.07;;;1.50;;
25341;SDS011;13298;48.792;9.154;2024-01-27T03:29:09;7.78;;;1.45;;
25341;SDS011;13298;48.792;9.154;2024-01-27T03:31:34;8.25;;;1.58;;
25341;SDS011;13298;48.792;9.154;2024-01-27T03:34:00;5.40;;;1.50;;
25341;SDS011;13298;48.792;9.154;2024-01-27T03:36:27;4.75;;;1.50;;
25341;SDS011;13298;48.792;9.154;2024-01-27T03:38:53;6.35;;;1.65;;
25341;SDS011;13298;48.792;9.154;2024-01-27T03:41:21;5.35;;;2.13;;
25341;SDS011;13298;48.792;9.154;2024-01-27T03:43:47;3.10;;;1.17;;
25341;SDS011;13298;48.792;9.154;2024-01-27T03:46:13;10.80;;;2.13;;
25341;SDS011;13298;48.792;9.154;2024-01-27T03:48:38;4.20;;;1.70;;
25341;SDS011;13298;48.792;9.154;2024-01-27T03:51:04;5.93;;;2.03;;
25341;SDS011;13298;48.792;9.154;2024-01-27T03:53:30;5.57;;;1.60;;
25341;SDS011;13298;48.792;9.154;2024-01-27T03:55:56;4.28;;;1.38;;
25341;SDS011;13298;48.792;9.154;2024-01-27T03:58:24;4.00;;;1.38;;
25341;SDS011;13298;48.792;9.154;2024-01-27T04:00:50;5.10;;;1.55;;
25341;SDS011;13298;48.792;9.154;2024-01-27T04:03:19;4.22;;;1.45;;
25341;SDS011;13298;48.792;9.154;2024-01-27T04:05:45;6.72;;;1.38;;
25341;SDS011;13298;48.792;9.154;2024-01-27T04:08:11;5.60;;;1.48;;
25341;SDS011;13298;48.792;9.154;2024-01-27T04:10:37;2.83;;;1.38;;
25341;SDS011;13298;48.792;9.154;2024-01-27T04:13:03;5.97;;;1.33;;
25341;SDS011;13298;48.792;9.154;2024-01-27T04:15:28;4.65;;;1.52;;
25341;SDS011;13298;48.792;9.154;2024-01-27T04:17:54;5.70;;;1.50;;
25341;SDS011;13298;48.792;9.154;2024-01-27T04:20:21;6.75;;;1.65;;
25341;SDS011;13298;48.792;9.154;2024-01-27T04:22:46;2.58;;;1.35;;
25341;SDS011;13298;48.792;9.154;2024-01-27T04:25:12;3.50;;;1.30;;
25341;SDS011;13298;48.792;9.154;2024-01-27T04:27:38;7.88;;;1.70;;
25341;SDS011;13298;48.792;9.154;2024-01-27T04:30:05;3.55;;;1.60;;
25341;SDS011;13298;48.792;9.154;2024-01-27T04:32:32;4.10;;;1.45;;
25341;SDS011;13298;48.792;9.154;2024-01-27T04:34:58;3.25;;;1.00;;
25341;SDS011;13298;48.792;9.154;2024-01-27T04:37:23;5.70;;;1.05;;
25341;SDS011;13298;48.792;9.154;2024-01-27T04:39:49;6.60;;;1.50;;
25341;SDS011;13298;48.792;9.154;2024-01-27T04:42:15;5.30;;;1.55;;
25341;SDS011;13298;48.792;9.154;2024-01-27T04:44:41;3.00;;;1.20;;
25341;SDS011;13298;48.792;9.154;2024-01-27T04:47:07;3.95;;;1.20;;
25341;SDS011;13298;48.792;9.154;2024-01-27T04:49:33;3.17;;;1.23;;
25341;SDS011;13298;48.792;9.154;2024-01-27T04:51:59;4.32;;;1.08;;
25341;SDS011;13298;48.792;9.154;2024-01-27T04:54:25;4.07;;;1.52;;
25341;SDS011;13298;48.792;9.154;2024-01-27T04:56:50;5.25;;;1.27;;
25341;SDS011;13298;48.792;9.154;2024-01-27T04:59:16;2.10;;;1.10;;
25341;SDS011;13298;48.792;9.154;2024-01-27T05:01:45;5.55;;;1.38;;
25341;SDS011;13298;48.792;9.154;2024-01-27T05:04:11;4.30;;;1.13;;
25341;SDS011;13298;48.792;9.154;2024-01-27T05:06:37;5.07;;;1.38;;
25341;SDS011;13298;48.792;9.154;2024-01-27T05:09:06;4.10;;;1.60;;
25341;SDS011;13298;48.792;9.154;2024-01-27T05:11:32;2.60;;;1.30;;
25341;SDS011;13298;48.792;9.154;2024-01-27T05:13:59;6.18;;;1.50;;
25341;SDS011;13298;48.792;9.154;2024-01-27T05:16:25;12.07;;;1.90;;
25341;SDS011;13298;48.792;9.154;2024-01-27T05:18:52;4.90;;;1.48;;
25341;SDS011;13298;48.792;9.154;2024-01-27T05:21:17;7.70;;;1.70;;
25341;SDS011;13298;48.792;9.154;2024-01-27T05:23:43;5.03;;;1.30;;
25341;SDS011;13298;48.792;9.154;2024-01-27T05:26:09;5.05;;;1.50;;
25341;SDS011;13298;48.792;9.154;2024-01-27T05:28:36;5.45;;;1.40;;
25341;SDS011;13298;48.792;9.154;2024-01-27T05:31:03;6.97;;;1.42;;
25341;SDS011;13298;48.792;9.154;2024-01-27T05:33:31;2.13;;;1.13;;
25341;SDS011;13298;48.792;9.154;2024-01-27T05:35:57;4.70;;;1.85;;
25341;SDS011;13298;48.792;9.154;2024-01-27T05:38:23;2.67;;;1.30;;
25341;SDS011;13298;48.792;9.154;2024-01-27T05:40:50;6.43;;;1.77;;
25341;SDS011;13298;48.792;9.154;2024-01-27T05:43:16;6.55;;;1.25;;
25341;SDS011;13298;48.792;9.154;2024-01-27T05:45:43;5.22;;;1.67;;
25341;SDS011;13298;48.792;9.154;2024-01-27T05:48:10;2.88;;;1.25;;
25341;SDS011;13298;48.792;9.154;2024-01-27T05:50:36;5.90;;;1.30;;
25341;SDS011;13298;48.792;9.154;2024-01-27T05:53:01;3.97;;;1.42;;
25341;SDS011;13298;48.792;9.154;2024-01-27T05:55:27;5.43;;;1.50;;
25341;SDS011;13298;48.792;9.154;2024-01-27T05:57:53;4.72;;;1.45;;
25341;SDS011;13298;48.792;9.154;2024-01-27T06:00:21;3.80;;;1.38;;
25341;SDS011;13298;48.792;9.154;2024-01-27T06:02:47;7.18;;;1.48;;
25341;SDS011;13298;48.792;9.154;2024-01-27T06:05:13;8.60;;;1.80;;
25341;SDS011;13298;48.792;9.154;2024-01-27T06:07:38;4.65;;;1.42;;
25341;SDS011;13298;48.792;9.154;2024-01-27T06:10:07;3.83;;;1.67;;
25341;SDS011;13298;48.792;9.154;2024-01-27T06:12:34;4.85;;;1.30;;
25341;SDS011;13298;48.792;9.154;2024-01-27T06:15:01;6.57;;;1.25;;
25341;SDS011;13298;48.792;9.154;2024-01-27T06:17:28;3.88;;;1.38;;
25341;SDS011;13298;48.792;9.154;2024-01-27T06:19:53;2.95;;;1.20;;
25341;SDS011;13298;48.792;9.154;2024-01-27T06:22:19;3.17;;;1.30;;
25341;SDS011;13298;48.792;9.154;2024-01-27T06:24:45;4.03;;;1.73;;
25341;SDS011;13298;48.792;9.154;2024-01-27T06:27:11;3.08;;;1.65;;
25341;SDS011;13298;48.792;9.154;2024-01-27T06:29:37;3.83;;;1.30;;
25341;SDS011;13298;48.792;9.154;2024-01-27T06:32:03;6.85;;;1.70;;
25341;SDS011;13298;48.792;9.154;2024-01-27T06:34:29;5.50;;;1.58;;
25341;SDS011;13298;48.792;9.154;2024-01-27T06:36:55;7.50;;;1.90;;
25341;SDS011;13298;48.792;9.154;2024-01-27T06:39:20;6.35;;;1.80;;
25341;SDS011;13298;48.792;9.154;2024-01-27T06:41:46;6.30;;;2.10;;
25341;SDS011;13298;48.792;9.154;2024-01-27T06:44:12;4.50;;;1.83;;
25341;SDS011;13298;48.792;9.154;2024-01-27T06:46:38;5.47;;;1.77;;
25341;SDS011;13298;48.792;9.154;2024-01-27T06:49:04;6.80;;;2.20;;
25341;SDS011;13298;48.792;9.154;2024-01-27T06:51:30;3.28;;;1.60;;
25341;SDS011;13298;48.792;9.154;2024-01-27T06:53:55;2.95;;;1.52;;
25341;SDS011;13298;48.792;9.154;2024-01-27T06:56:21;8.15;;;2.17;;
25341;SDS011;13298;48.792;9.154;2024-01-27T06:58:47;6.28;;;1.88;;
25341;SDS011;13298;48.792;9.154;2024-01-27T07:01:12;4.97;;;1.65;;
25341;SDS011;13298;48.792;9.154;2024-01-27T07:03:38;4.53;;;1.77;;
25341;SDS011;13298;48.792;9.154;2024-01-27T07:06:04;3.65;;;1.73;;
25341;SDS011;13298;48.792;9.154;2024-01-27T07:08:30;3.38;;;1.77;;
25341;SDS011;13298;48.792;9.154;2024-01-27T07:10:57;6.18;;;1.90;;
25341;SDS011;13298;48.792;9.154;2024-01-27T07:13:23;6.18;;;1.75;;
25341;SDS011;13298;48.792;9.154;2024-01-27T07:15:49;3.22;;;1.77;;
25341;SDS011;13298;48.792;9.154;2024-01-27T07:18:15;9.45;;;2.03;;
25341;SDS011;13298;48.792;9.154;2024-01-27T07:20:42;8.68;;;2.45;;
25341;SDS011;13298;48.792;9.154;2024-01-27T07:23:08;6.90;;;1.88;;
25341;SDS011;13298;48.792;9.154;2024-01-27T07:25:33;4.15;;;1.80;;
25341;SDS011;13298;48.792;9.154;2024-01-27T07:27:59;4.40;;;1.67;;
25341;SDS011;13298;48.792;9.154;2024-01-27T07:30:25;7.30;;;2.03;;
25341;SDS011;13298;48.792;9.154;2024-01-27T07:32:50;6.47;;;1.73;;
25341;SDS011;13298;48.792;9.154;2024-01-27T07:35:16;8.38;;;1.70;;
25341;SDS011;13298;48.792;9.154;2024-01-27T07:37:42;8.43;;;1.92;;
25341;SDS011;13298;48.792;9.154;2024-01-27T07:40:08;3.00;;;1.40;;
25341;SDS011;13298;48.792;9.154;2024-01-27T07:42:35;5.40;;;1.88;;
25341;SDS011;13298;48.792;9.154;2024-01-27T07:45:00;8.07;;;1.90;;
25341;SDS011;13298;48.792;9.154;2024-01-27T07:47:26;3.55;;;2.00;;
25341;SDS011;13298;48.792;9.154;2024-01-27T07:49:52;6.82;;;2.40;;
25341;SDS011;13298;48.792;9.154;2024-01-27T07:52:18;4.35;;;2.63;;
25341;SDS011;13298;48.792;9.154;2024-01-27T07:54:45;7.78;;;2.40;;
25341;SDS011;13298;48.792;9.154;2024-01-27T07:57:10;5.55;;;2.25;;
25341;SDS011;13298;48.792;9.154;2024-01-27T07:59:37;7.20;;;2.15;;
25341;SDS011;13298;48.792;9.154;2024-01-27T08:02:03;4.28;;;2.25;;
25341;SDS011;13298;48.792;9.154;2024-01-27T08:04:29;6.93;;;2.25;;
25341;SDS011;13298;48.792;9.154;2024-01-27T08:06:54;4.43;;;2.28;;
25341;SDS011;13298;48.792;9.154;2024-01-27T08:09:20;5.80;;;2.50;;
25341;SDS011;13298;48.792;9.154;2024-01-27T08:11:46;9.73;;;2.45;;
25341;SDS011;13298;48.792;9.154;2024-01-27T08:14:16;6.10;;;2.55;;
25341;SDS011;13298;48.792;9.154;2024-01-27T08:16:42;6.60;;;2.83;;
25341;SDS011;13298;48.792;9.154;2024-01-27T08:19:08;7.20;;;2.65;;
25341;SDS011;13298;48.792;9.154;2024-01-27T08:21:33;8.68;;;2.40;;
25341;SDS011;13298;48.792;9.154;2024-01-27T08:23:59;5.03;;;2.20;;
25341;SDS011;13298;48.792;9.154;2024-01-27T08:26:25;6.38;;;2.13;;
25341;SDS011;13298;48.792;9.154;2024-01-27T08:28:51;7.85;;;2.42;;
25341;SDS011;13298;48.792;9.154;2024-01-27T08:31:16;5.38;;;2.50;;
25341;SDS011;13298;48.792;9.154;2024-01-27T08:33:42;5.93;;;2.70;;
25341;SDS011;13298;48.792;9.154;2024-01-27T08:36:12;6.57;;;2.70;;
25341;SDS011;13298;48.792;9.154;2024-01-27T08:38:39;8.35;;;2.78;;
25341;SDS011;13298;48.792;9.154;2024-01-27T08:41:05;9.10;;;2.78;;
25341;SDS011;13298;48.792;9.154;2024-01-27T08:43:30;7.85;;;3.55;;
25341;SDS011;13298;48.792;9.154;2024-01-27T08:45:56;6.18;;;3.40;;
25341;SDS011;13298;48.792;9.154;2024-01-27T08:48:24;9.15;;;3.60;;
25341;SDS011;13298;48.792;9.154;2024-01-27T08:50:50;9.48;;;3.45;;
25341;SDS011;13298;48.792;9.154;2024-01-27T08:53:15;7.72;;;3.25;;
25341;SDS011;13298;48.792;9.154;2024-01-27T08:55:41;10.02;;;3.50;;
25341;SDS011;13298;48.792;9.154;2024-01-27T08:58:06;5.22;;;3.00;;
25341;SDS011;13298;48.792;9.154;2024-01-27T09:00:32;6.50;;;3.30;;
25341;SDS011;13298;48.792;9.154;2024-01-27T09:02:58;7.80;;;3.22;;
25341;SDS011;13298;48.792;9.154;2024-01-27T09:05:24;5.80;;;3.13;;
25341;SDS011;13298;48.792;9.154;2024-01-27T09:07:49;8.05;;;3.65;;
25341;SDS011;13298;48.792;9.154;2024-01-27T09:10:15;9.60;;;3.58;;
25341;SDS011;13298;48.792;9.154;2024-01-27T09:12:41;7.55;;;3.63;;
25341;SDS011;13298;48.792;9.154;2024-01-27T09:15:07;13.00;;;4.60;;
25341;SDS011;13298;48.792;9.154;2024-01-27T09:17:33;10.32;;;3.53;;
25341;SDS011;13298;48.792;9.154;2024-01-27T09:19:59;10.27;;;3.20;;
25341;SDS011;13298;48.792;9.154;2024-01-27T09:22:25;8.65;;;3.55;;
25341;SDS011;13298;48.792;9.154;2024-01-27T09:24:51;8.82;;;3.17;;
25341;SDS011;13298;48.792;9.154;2024-01-27T09:27:18;8.20;;;3.20;;
25341;SDS011;13298;48.792;9.154;2024-01-27T09:29:43;7.88;;;3.22;;
25341;SDS011;13298;48.792;9.154;2024-01-27T09:32:09;9.73;;;3.03;;
25341;SDS011;13298;48.792;9.154;2024-01-27T09:34:35;10.90;;;3.30;;
25341;SDS011;13298;48.792;9.154;2024-01-27T09:37:01;5.72;;;2.97;;
25341;SDS011;13298;48.792;9.154;2024-01-27T09:39:26;7.53;;;2.63;;
25341;SDS011;13298;48.792;9.154;2024-01-27T09:41:52;5.80;;;2.80;;
25341;SDS011;13298;48.792;9.154;2024-01-27T09:44:20;7.88;;;3.17;;
25341;SDS011;13298;48.792;9.154;2024-01-27T09:46:46;4.90;;;2.58;;
25341;SDS011;13298;48.792;9.154;2024-01-27T09:49:13;5.43;;;2.90;;
25341;SDS011;13298;48.792;9.154;2024-01-27T09:51:41;7.72;;;3.17;;
25341;SDS011;13298;48.792;9.154;2024-01-27T09:54:07;7.50;;;3.63;;
25341;SDS011;13298;48.792;9.154;2024-01-27T09:56:32;8.23;;;2.97;;
25341;SDS011;13298;48.792;9.154;2024-01-27T09:58:59;7.32;;;2.80;;
25341;SDS011;13298;48.792;9.154;2024-01-27T10:01:25;8.90;;;3.00;;
25341;SDS011;13298;48.792;9.154;2024-01-27T10:03:53;8.00;;;3.53;;
25341;SDS011;13298;48.792;9.154;2024-01-27T10:06:23;7.43;;;2.80;;
25341;SDS011;13298;48.792;9.154;2024-01-27T10:08:53;5.82;;;2.85;;
25341;SDS011;13298;48.792;9.154;2024-01-27T10:11:20;8.07;;;3.22;;
25341;SDS011;13298;48.792;9.154;2024-01-27T10:13:57;6.30;;;2.92;;
25341;SDS011;13298;48.792;9.154;2024-01-27T10:16:25;9.35;;;3.38;;
25341;SDS011;13298;48.792;9.154;2024-01-27T10:19:03;5.93;;;2.92;;
25341;SDS011;13298;48.792;9.154;2024-01-27T10:21:29;10.65;;;2.75;;
25341;SDS011;13298;48.792;9.154;2024-01-27T10:23:55;5.57;;;2.30;;
25341;SDS011;13298;48.792;9.154;2024-01-27T10:26:20;6.90;;;2.50;;
25341;SDS011;13298;48.792;9.154;2024-01-27T10:28:53;5.57;;;3.22;;
25341;SDS011;13298;48.792;9.154;2024-01-27T10:31:25;10.43;;;3.63;;
25341;SDS011;13298;48.792;9.154;2024-01-27T10:33:53;4.95;;;2.33;;
25341;SDS011;13298;48.792;9.154;2024-01-27T10:36:21;6.15;;;2.75;;
25341;SDS011;13298;48.792;9.154;2024-01-27T10:38:47;8.90;;;3.28;;
25341;SDS011;13298;48.792;9.154;2024-01-27T10:41:14;6.28;;;2.67;;
25341;SDS011;13298;48.792;9.154;2024-01-27T10:43:48;6.90;;;2.70;;
25341;SDS011;13298;48.792;9.154;2024-01-27T10:46:20;8.43;;;2.70;;
25341;SDS011;13298;48.792;9.154;2024-01-27T10:48:49;14.07;;;3.53;;
25341;SDS011;13298;48.792;9.154;2024-01-27T10:51:22;12.85;;;3.67;;
25341;SDS011;13298;48.792;9.154;2024-01-27T10:53:57;4.93;;;2.38;;
25341;SDS011;13298;48.792;9.154;2024-01-27T10:56:28;10.10;;;2.90;;
25341;SDS011;13298;48.792;9.154;2024-01-27T10:58:57;14.48;;;4.30;;
25341;SDS011;13298;48.792;9.154;2024-01-27T11:01:24;7.72;;;3.50;;
25341;SDS011;13298;48.792;9.154;2024-01-27T11:03:52;6.13;;;3.33;;
25341;SDS011;13298;48.792;9.154;2024-01-27T11:06:19;4.82;;;2.80;;
25341;SDS011;13298;48.792;9.154;2024-01-27T11:08:49;8.65;;;3.38;;
25341;SDS011;13298;48.792;9.154;2024-01-27T11:11:15;9.77;;;3.40;;
25341;SDS011;13298;48.792;9.154;2024-01-27T11:13:42;5.90;;;3.05;;
25341;SDS011;13298;48.792;9.154;2024-01-27T11:16:17;10.48;;;3.50;;
25341;SDS011;13298;48.792;9.154;2024-01-27T11:18:44;7.55;;;3.92;;
25341;SDS011;13298;48.792;9.154;2024-01-27T11:21:16;6.65;;;3.10;;
25341;SDS011;13298;48.792;9.154;2024-01-27T11:23:42;7.15;;;3.08;;
25341;SDS011;13298;48.792;9.154;2024-01-27T11:26:09;8.52;;;3.47;;
25341;SDS011;13298;48.792;9.154;2024-01-27T11:28:37;6.20;;;2.92;;
25341;SDS011;13298;48.792;9.154;2024-01-27T11:31:05;8.48;;;3.72;;
25341;SDS011;13298;48.792;9.154;2024-01-27T11:33:32;13.38;;;3.53;;
25341;SDS011;13298;48.792;9.154;2024-01-27T11:36:04;9.80;;;3.45;;
25341;SDS011;13298;48.792;9.154;2024-01-27T11:38:31;9.77;;;3.60;;
25341;SDS011;13298;48.792;9.154;2024-01-27T11:40:58;6.43;;;3.28;;
25341;SDS011;13298;48.792;9.154;2024-01-27T11:43:26;10.32;;;3.53;;
25341;SDS011;13298;48.792;9.154;2024-01-27T11:45:59;10.02;;;3.83;;
25341;SDS011;13298;48.792;9.154;2024-01-27T11:48:25;6.80;;;3.50;;
25341;SDS011;13298;48.792;9.154;2024-01-27T11:53:48;7.45;;;3.00;;
25341;SDS011;13298;48.792;9.154;2024-01-27T11:56:13;9.88;;;3.15;;
25341;SDS011;13298;48.792;9.154;2024-01-27T11:58:45;9.70;;;3.70;;
25341;SDS011;13298;48.792;9.154;2024-01-27T12:01:13;10.68;;;3.30;;
25341;SDS011;13298;48.792;9.154;2024-01-27T12:03:39;10.32;;;3.15;;
25341;SDS011;13298;48.792;9.154;2024-01-27T12:06:05;6.15;;;3.40;;
25341;SDS011;13298;48.792;9.154;2024-01-27T12:08:34;12.15;;;3.50;;
25341;SDS011;13298;48.792;9.154;2024-01-27T12:11:01;10.93;;;3.70;;
25341;SDS011;13298;48.792;9.154;2024-01-27T12:13:27;8.43;;;3.13;;
25341;SDS011;13298;48.792;9.154;2024-01-27T12:15:53;5.95;;;3.10;;
25341;SDS011;13298;48.792;9.154;2024-01-27T12:18:19;6.95;;;2.67;;
25341;SDS011;13298;48.792;9.154;2024-01-27T12:20:44;5.45;;;2.72;;
25341;SDS011;13298;48.792;9.154;2024-01-27T12:23:10;9.52;;;3.40;;
25341;SDS011;13298;48.792;9.154;2024-01-27T12:25:36;9.65;;;3.20;;
25341;SDS011;13298;48.792;9.154;2024-01-27T12:28:05;14.65;;;6.40;;
25341;SDS011;13298;48.792;9.154;2024-01-27T12:30:32;8.48;;;3.20;;
25341;SDS011;13298;48.792;9.154;2024-01-27T12:32:59;9.68;;;3.40;;
25341;SDS011;13298;48.792;9.154;2024-01-27T12:35:34;7.97;;;2.80;;
25341;SDS011;13298;48.792;9.154;2024-01-27T12:38:00;10.52;;;3.30;;
25341;SDS011;13298;48.792;9.154;2024-01-27T12:40:26;6.38;;;2.90;;
25341;SDS011;13298;48.792;9.154;2024-01-27T12:42:52;6.75;;;2.60;;
25341;SDS011;13298;48.792;9.154;2024-01-27T12:45:18;10.40;;;3.13;;
25341;SDS011;13298;48.792;9.154;2024-01-27T12:47:44;11.90;;;2.97;;
25341;SDS011;13298;48.792;9.154;2024-01-27T12:50:10;4.95;;;2.55;;
25341;SDS011;13298;48.792;9.154;2024-01-27T12:52:36;10.40;;;3.63;;
25341;SDS011;13298;48.792;9.154;2024-01-27T12:55:02;9.48;;;3.38;;
25341;SDS011;13298;48.792;9.154;2024-01-27T12:57:29;5.25;;;2.75;;
25341;SDS011;13298;48.792;9.154;2024-01-27T12:59:55;8.18;;;3.15;;
25341;SDS011;13298;48.792;9.154;2024-01-27T13:02:21;10.18;;;2.83;;
25341;SDS011;13298;48.792;9.154;2024-01-27T13:04:46;9.48;;;2.50;;
25341;SDS011;13298;48.792;9.154;2024-01-27T13:07:12;6.40;;;2.67;;
25341;SDS011;13298;48.792;9.154;2024-01-27T13:09:39;8.30;;;2.28;;
25341;SDS011;13298;48.792;9.154;2024-01-27T13:12:05;5.13;;;2.10;;
25341;SDS011;13298;48.792;9.154;2024-01-27T13:14:30;4.78;;;1.80;;
25341;SDS011;13298;48.792;9.154;2024-01-27T13:16:56;5.50;;;2.00;;
25341;SDS011;13298;48.792;9.154;2024-01-27T13:19:24;4.15;;;1.55;;
25341;SDS011;13298;48.792;9.154;2024-01-27T13:21:51;6.35;;;1.80;;
25341;SDS011;13298;48.792;9.154;2024-01-27T13:24:16;5.72;;;1.50;;
25341;SDS011;13298;48.792;9.154;2024-01-27T13:26:42;4.93;;;1.50;;
25341;SDS011;13298;48.792;9.154;2024-01-27T13:29:08;3.60;;;1.40;;
25341;SDS011;13298;48.792;9.154;2024-01-27T13:31:33;4.53;;;1.85;;
25341;SDS011;13298;48.792;9.154;2024-01-27T13:33:59;5.30;;;1.90;;
25341;SDS011;13298;48.792;9.154;2024-01-27T13:36:26;3.65;;;1.60;;
25341;SDS011;13298;48.792;9.154;2024-01-27T13:38:52;5.22;;;1.83;;
25341;SDS011;13298;48.792;9.154;2024-01-27T13:41:18;2.70;;;1.30;;
25341;SDS011;13298;48.792;9.154;2024-01-27T13:43:44;5.70;;;1.40;;
25341;SDS011;13298;48.792;9.154;2024-01-27T13:46:10;2.10;;;1.42;;
25341;SDS011;13298;48.792;9.154;2024-01-27T13:48:36;3.17;;;1.73;;
25341;SDS011;13298;48.792;9.154;2024-01-27T13:51:02;2.80;;;1.48;;
25341;SDS011;13298;48.792;9.154;2024-01-27T13:53:28;4.55;;;1.75;;
25341;SDS011;13298;48.792;9.154;2024-01-27T13:55:54;5.22;;;1.80;;
25341;SDS011;13298;48.792;9.154;2024-01-27T13:58:20;6.07;;;1.75;;
25341;SDS011;13298;48.792;9.154;2024-01-27T14:00:46;6.93;;;2.25;;
25341;SDS011;13298;48.792;9.154;2024-01-27T14:03:12;5.18;;;1.80;;
25341;SDS011;13298;48.792;9.154;2024-01-27T14:05:38;9.65;;;1.90;;
25341;SDS011;13298;48.792;9.154;2024-01-27T14:08:06;7.35;;;2.30;;
25341;SDS011;13298;48.792;9.154;2024-01-27T14:10:33;5.30;;;1.60;;
25341;SDS011;13298;48.792;9.154;2024-01-27T14:13:00;5.10;;;1.50;;
25341;SDS011;13298;48.792;9.154;2024-01-27T14:15:28;4.95;;;1.40;;
25341;SDS011;13298;48.792;9.154;2024-01-27T14:17:54;4.32;;;1.63;;
25341;SDS011;13298;48.792;9.154;2024-01-27T14:20:20;6.43;;;1.88;;
25341;SDS011;13298;48.792;9.154;2024-01-27T14:22:45;4.82;;;1.75;;
25341;SDS011;13298;48.792;9.154;2024-01-27T14:25:11;7.85;;;1.90;;
25341;SDS011;13298;48.792;9.154;2024-01-27T14:27:37;6.88;;;1.80;;
25341;SDS011;13298;48.792;9.154;2024-01-27T14:30:03;5.15;;;1.90;;
25341;SDS011;13298;48.792;9.154;2024-01-27T14:32:29;5.88;;;1.90;;
25341;SDS011;13298;48.792;9.154;2024-01-27T14:34:55;4.97;;;1.98;;
25341;SDS011;13298;48.792;9.154;2024-01-27T14:37:21;5.88;;;2.00;;
25341;SDS011;13298;48.792;9.154;2024-01-27T14:39:47;6.65;;;2.65;;
25341;SDS011;13298;48.792;9.154;2024-01-27T14:42:13;4.95;;;2.28;;
25341;SDS011;13298;48.792;9.154;2024-01-27T14:44:40;4.95;;;2.40;;